sensor_id;sensor_type;location;lat;lon;timestamp;pressure;altitude;pressure_sealevel;temperature;humidity
54172;BME280;40076;52.354;4.970;2023-07-31T00:00:54;100912.84;;;17.80;100.00
54172;BME280;40076;52.354;4.970;2023-07-31T00:03:19;100920.34;;;17.83;100.00
54172;BME280;40076;52.354;4.970;2023-07-31T00:05:44;100911.41;;;17.86;100.00
54172;BME280;40076;52.354;4.970;2023-07-31T00:08:10;100907.50;;;17.87;100.00
54172;BME280;40076;52.354;4.970;2023-07-31T00:10:35;100909.53;;;17.90;100.00
54172;BME280;40076;52.354;4.970;2023-07-31T00:13:01;100917.72;;;17.90;100.00
54172;BME280;40076;52.354;4.970;2023-07-31T00:15:26;100912.69;;;17.92;100.00
54172;BME280;40076;52.354;4.970;2023-07-31T00:17:51;100907.63;;;17.94;100.00
54172;BME280;40076;52.354;4.970;2023-07-31T00:20:17;100911.56;;;17.96;100.00
54172;BME280;40076;52.354;4.970;2023-07-31T00:22:42;100906.91;;;17.97;100.00
54172;BME280;40076;52.354;4.970;2023-07-31T00:25:08;100909.28;;;17.98;100.00
54172;BME280;40076;52.354;4.970;2023-07-31T00:27:33;100905.38;;;17.99;100.00
54172;BME280;40076;52.354;4.970;2023-07-31T00:29:59;100907.38;;;18.02;100.00
54172;BME280;40076;52.354;4.970;2023-07-31T00:32:24;100893.69;;;18.02;100.00
54172;BME280;40076;52.354;4.970;2023-07-31T00:34:50;100896.06;;;18.04;100.00
54172;BME280;40076;52.354;4.970;2023-07-31T00:37:15;100899.59;;;18.04;100.00
54172;BME280;40076;52.354;4.970;2023-07-31T00:39:40;100897.66;;;18.05;100.00
54172;BME280;40076;52.354;4.970;2023-07-31T00:42:06;100894.56;;;18.06;100.00
54172;BME280;40076;52.354;4.970;2023-07-31T00:44:32;100898.47;;;18.09;100.00
54172;BME280;40076;52.354;4.970;2023-07-31T00:46:57;100892.63;;;18.07;100.00
54172;BME280;40076;52.354;4.970;2023-07-31T00:49:24;100895.75;;;18.09;100.00
54172;BME280;40076;52.354;4.970;2023-07-31T00:51:50;100894.59;;;18.10;100.00
54172;BME280;40076;52.354;4.970;2023-07-31T00:54:15;100888.34;;;18.09;100.00
54172;BME280;40076;52.354;4.970;2023-07-31T00:56:41;100899.63;;;18.08;100.00
54172;BME280;40076;52.354;4.970;2023-07-31T00:59:09;100891.06;;;18.09;100.00
54172;BME280;40076;52.354;4.970;2023-07-31T01:01:35;100885.25;;;18.11;100.00
54172;BME280;40076;52.354;4.970;2023-07-31T01:04:01;100880.91;;;18.10;100.00
54172;BME280;40076;52.354;4.970;2023-07-31T01:06:51;100882.50;;;18.11;100.00
54172;BME280;40076;52.354;4.970;2023-07-31T01:10:02;100887.53;;;18.09;100.00
54172;BME280;40076;52.354;4.970;2023-07-31T01:12:13;100893.81;;;18.09;100.00
54172;BME280;40076;52.354;4.970;2023-07-31T01:14:39;100894.16;;;18.08;100.00
54172;BME280;40076;52.354;4.970;2023-07-31T01:17:05;100883.22;;;18.08;100.00
54172;BME280;40076;52.354;4.970;2023-07-31T01:19:34;100879.31;;;18.05;100.00
54172;BME280;40076;52.354;4.970;2023-07-31T01:22:30;100876.56;;;18.05;100.00
54172;BME280;40076;52.354;4.970;2023-07-31T01:27:44;100882.03;;;18.05;100.00
54172;BME280;40076;52.354;4.970;2023-07-31T01:30:20;100876.56;;;18.05;100.00
54172;BME280;40076;52.354;4.970;2023-07-31T01:32:51;100870.31;;;18.05;100.00
54172;BME280;40076;52.354;4.970;2023-07-31T01:35:18;100875.00;;;18.04;100.00
54172;BME280;40076;52.354;4.970;2023-07-31T01:37:43;100871.03;;;18.02;100.00
54172;BME280;40076;52.354;4.970;2023-07-31T01:40:09;100880.78;;;17.99;100.00
54172;BME280;40076;52.354;4.970;2023-07-31T01:42:37;100871.41;;;18.00;100.00
54172;BME280;40076;52.354;4.970;2023-07-31T01:45:02;100865.94;;;18.00;100.00
54172;BME280;40076;52.354;4.970;2023-07-31T01:47:28;100863.63;;;18.02;100.00
54172;BME280;40076;52.354;4.970;2023-07-31T01:49:53;100861.69;;;18.03;100.00
54172;BME280;40076;52.354;4.970;2023-07-31T01:52:19;100860.09;;;18.02;100.00
54172;BME280;40076;52.354;4.970;2023-07-31T01:54:46;100858.94;;;18.03;100.00
54172;BME280;40076;52.354;4.970;2023-07-31T01:57:12;100848.81;;;18.03;100.00
54172;BME280;40076;52.354;4.970;2023-07-31T01:59:55;100842.13;;;18.01;100.00
54172;BME280;40076;52.354;4.970;2023-07-31T02:02:20;100846.84;;;18.04;100.00
54172;BME280;40076;52.354;4.970;2023-07-31T02:04:48;100846.78;;;18.00;100.00
54172;BME280;40076;52.354;4.970;2023-07-31T02:07:15;100851.50;;;18.00;100.00
54172;BME280;40076;52.354;4.970;2023-07-31T02:09:43;100841.31;;;18.00;100.00
54172;BME280;40076;52.354;4.970;2023-07-31T02:12:08;100833.53;;;18.02;100.00
54172;BME280;40076;52.354;4.970;2023-07-31T02:14:34;100832.03;;;18.05;100.00
54172;BME280;40076;52.354;4.970;2023-07-31T02:17:00;100828.50;;;18.04;100.00
54172;BME280;40076;52.354;4.970;2023-07-31T02:19:25;100830.50;;;18.07;100.00
54172;BME280;40076;52.354;4.970;2023-07-31T02:21:51;100830.50;;;18.07;100.00
54172;BME280;40076;52.354;4.970;2023-07-31T02:24:16;100825.03;;;18.07;100.00
54172;BME280;40076;52.354;4.970;2023-07-31T02:26:41;100830.13;;;18.09;100.00
54172;BME280;40076;52.354;4.970;2023-07-31T02:29:08;100822.72;;;18.09;100.00
54172;BME280;40076;52.354;4.970;2023-07-31T02:31:33;100828.53;;;18.08;100.00
54172;BME280;40076;52.354;4.970;2023-07-31T02:34:01;100821.13;;;18.08;100.00
54172;BME280;40076;52.354;4.970;2023-07-31T02:36:26;100824.25;;;18.07;100.00
54172;BME280;40076;52.354;4.970;2023-07-31T02:38:52;100824.25;;;18.07;100.00
54172;BME280;40076;52.354;4.970;2023-07-31T02:41:17;100821.91;;;18.09;100.00
54172;BME280;40076;52.354;4.970;2023-07-31T02:43:42;100806.66;;;18.08;100.00
54172;BME280;40076;52.354;4.970;2023-07-31T02:46:08;100816.44;;;18.09;100.00
54172;BME280;40076;52.354;4.970;2023-07-31T02:48:33;100808.25;;;18.09;100.00
54172;BME280;40076;52.354;4.970;2023-07-31T02:50:59;100809.41;;;18.08;100.00
54172;BME280;40076;52.354;4.970;2023-07-31T02:53:24;100810.97;;;18.09;100.00
54172;BME280;40076;52.354;4.970;2023-07-31T02:55:49;100808.25;;;18.09;100.00
54172;BME280;40076;52.354;4.970;2023-07-31T02:58:15;100809.41;;;18.08;100.00
54172;BME280;40076;52.354;4.970;2023-07-31T03:00:44;100805.91;;;18.07;100.00
54172;BME280;40076;52.354;4.970;2023-07-31T03:03:12;100796.91;;;18.07;100.00
54172;BME280;40076;52.354;4.970;2023-07-31T03:05:38;100800.44;;;18.07;100.00
54172;BME280;40076;52.354;4.970;2023-07-31T03:08:03;100796.13;;;18.06;100.00
54172;BME280;40076;52.354;4.970;2023-07-31T03:10:29;100803.94;;;18.08;100.00
54172;BME280;40076;52.354;4.970;2023-07-31T03:12:54;100803.16;;;18.07;100.00
54172;BME280;40076;52.354;4.970;2023-07-31T03:15:20;100801.59;;;18.06;100.00
54172;BME280;40076;52.354;4.970;2023-07-31T03:17:45;100793.00;;;18.08;100.00
54172;BME280;40076;52.354;4.970;2023-07-31T03:20:11;100793.00;;;18.08;100.00
54172;BME280;40076;52.354;4.970;2023-07-31T03:22:36;100797.31;;;18.09;100.00
54172;BME280;40076;52.354;4.970;2023-07-31T03:25:05;100794.19;;;18.07;100.00
54172;BME280;40076;52.354;4.970;2023-07-31T03:27:30;100789.91;;;18.09;100.00
54172;BME280;40076;52.354;4.970;2023-07-31T03:29:56;100787.94;;;18.10;100.00
54172;BME280;40076;52.354;4.970;2023-07-31T03:32:21;100787.94;;;18.10;100.00
54172;BME280;40076;52.354;4.970;2023-07-31T03:34:46;100786.78;;;18.11;100.00
54172;BME280;40076;52.354;4.970;2023-07-31T03:37:12;100780.16;;;18.12;100.00
54172;BME280;40076;52.354;4.970;2023-07-31T03:39:37;100780.16;;;18.12;100.00
54172;BME280;40076;52.354;4.970;2023-07-31T03:42:03;100780.16;;;18.12;100.00
54172;BME280;40076;52.354;4.970;2023-07-31T03:44:28;100778.59;;;18.11;100.00
54172;BME280;40076;52.354;4.970;2023-07-31T03:46:54;100773.91;;;18.11;100.00
54172;BME280;40076;52.354;4.970;2023-07-31T03:49:19;100773.91;;;18.11;100.00
54172;BME280;40076;52.354;4.970;2023-07-31T03:51:45;100766.06;;;18.10;100.00
54172;BME280;40076;52.354;4.970;2023-07-31T03:54:10;100770.75;;;18.09;100.00
54172;BME280;40076;52.354;4.970;2023-07-31T03:56:35;100763.72;;;18.08;100.00
54172;BME280;40076;52.354;4.970;2023-07-31T03:59:02;100758.63;;;18.07;100.00
54172;BME280;40076;52.354;4.970;2023-07-31T04:01:28;100757.84;;;18.06;100.00
54172;BME280;40076;52.354;4.970;2023-07-31T04:03:53;100749.63;;;18.06;100.00
54172;BME280;40076;52.354;4.970;2023-07-31T04:06:19;100737.91;;;18.06;100.00
54172;BME280;40076;52.354;4.970;2023-07-31T04:08:44;100734.38;;;18.05;100.00
54172;BME280;40076;52.354;4.970;2023-07-31T04:11:10;100735.19;;;18.06;100.00
54172;BME280;40076;52.354;4.970;2023-07-31T04:13:36;100730.06;;;18.04;100.00
54172;BME280;40076;52.354;4.970;2023-07-31T04:16:02;100739.84;;;18.05;100.00
54172;BME280;40076;52.354;4.970;2023-07-31T04:18:27;100738.28;;;18.04;100.00
54172;BME280;40076;52.354;4.970;2023-07-31T04:20:53;100735.97;;;18.06;100.00
54172;BME280;40076;52.354;4.970;2023-07-31T04:23:19;100736.34;;;18.05;100.00
54172;BME280;40076;52.354;4.970;2023-07-31T04:25:45;100734.38;;;18.05;100.00
54172;BME280;40076;52.354;4.970;2023-07-31T04:28:10;100734.38;;;18.05;100.00
54172;BME280;40076;52.354;4.970;2023-07-31T04:30:35;100734.38;;;18.05;100.00
54172;BME280;40076;52.354;4.970;2023-07-31T04:33:01;100728.13;;;18.05;100.00
54172;BME280;40076;52.354;4.970;2023-07-31T04:35:27;100726.91;;;18.02;100.00
54172;BME280;40076;52.354;4.970;2023-07-31T04:37:52;100731.19;;;18.00;100.00
54172;BME280;40076;52.354;4.970;2023-07-31T04:40:18;100728.84;;;17.98;100.00
54172;BME280;40076;52.354;4.970;2023-07-31T04:42:43;100723.38;;;17.98;100.00
54172;BME280;40076;52.354;4.970;2023-07-31T04:45:09;100725.66;;;17.96;100.00
54172;BME280;40076;52.354;4.970;2023-07-31T04:47:34;100722.16;;;17.96;100.00
54172;BME280;40076;52.354;4.970;2023-07-31T04:50:00;100715.47;;;17.93;100.00
54172;BME280;40076;52.354;4.970;2023-07-31T04:52:25;100716.66;;;17.92;100.00
54172;BME280;40076;52.354;4.970;2023-07-31T04:54:51;100714.28;;;17.91;100.00
54172;BME280;40076;52.354;4.970;2023-07-31T04:57:16;100707.25;;;17.90;100.00
54172;BME280;40076;52.354;4.970;2023-07-31T04:59:41;100712.69;;;17.90;100.00
54172;BME280;40076;52.354;4.970;2023-07-31T05:02:37;100699.75;;;17.87;100.00
54172;BME280;40076;52.354;4.970;2023-07-31T05:05:02;100709.13;;;17.86;100.00
54172;BME280;40076;52.354;4.970;2023-07-31T05:10:50;100705.94;;;17.80;100.00
54172;BME280;40076;52.354;4.970;2023-07-31T05:13:15;100703.16;;;17.77;100.00
54172;BME280;40076;52.354;4.970;2023-07-31T05:15:41;100699.66;;;17.76;100.00
54172;BME280;40076;52.354;4.970;2023-07-31T05:18:06;100697.31;;;17.78;100.00
54172;BME280;40076;52.354;4.970;2023-07-31T05:20:32;100695.00;;;17.80;100.00
54172;BME280;40076;52.354;4.970;2023-07-31T05:22:57;100690.31;;;17.81;100.00
54172;BME280;40076;52.354;4.970;2023-07-31T05:28:44;100682.50;;;17.79;100.00
54172;BME280;40076;52.354;4.970;2023-07-31T05:31:10;100684.06;;;17.80;100.00
54172;BME280;40076;52.354;4.970;2023-07-31T05:33:35;100673.13;;;17.80;100.00
54172;BME280;40076;52.354;4.970;2023-07-31T05:36:01;100687.94;;;17.79;100.00
54172;BME280;40076;52.354;4.970;2023-07-31T05:38:29;100677.38;;;17.78;100.00
54172;BME280;40076;52.354;4.970;2023-07-31T05:40:55;100672.31;;;17.76;100.00
54172;BME280;40076;52.354;4.970;2023-07-31T05:43:21;100666.00;;;17.72;100.00
54172;BME280;40076;52.354;4.970;2023-07-31T05:45:47;100660.91;;;17.70;100.00
54172;BME280;40076;52.354;4.970;2023-07-31T05:48:12;100663.25;;;17.68;100.00
54172;BME280;40076;52.354;4.970;2023-07-31T05:50:38;100663.59;;;17.67;100.00
54172;BME280;40076;52.354;4.970;2023-07-31T05:53:06;100658.50;;;17.65;100.00
54172;BME280;40076;52.354;4.970;2023-07-31T05:55:33;100658.47;;;17.62;100.00
54172;BME280;40076;52.354;4.970;2023-07-31T05:57:59;100658.47;;;17.62;100.00
54172;BME280;40076;52.354;4.970;2023-07-31T06:03:33;100648.25;;;17.59;100.00
54172;BME280;40076;52.354;4.970;2023-07-31T06:05:58;100654.06;;;17.57;100.00
54172;BME280;40076;52.354;4.970;2023-07-31T06:08:26;100656.38;;;17.55;100.00
54172;BME280;40076;52.354;4.970;2023-07-31T06:10:51;100650.13;;;17.55;100.00
54172;BME280;40076;52.354;4.970;2023-07-31T06:13:17;100648.56;;;17.54;100.00
54172;BME280;40076;52.354;4.970;2023-07-31T06:15:43;100640.75;;;17.52;100.00
54172;BME280;40076;52.354;4.970;2023-07-31T06:18:08;100654.75;;;17.51;100.00
54172;BME280;40076;52.354;4.970;2023-07-31T06:20:41;100649.66;;;17.49;100.00
54172;BME280;40076;52.354;4.970;2023-07-31T06:23:07;100653.97;;;17.50;100.00
54172;BME280;40076;52.354;4.970;2023-07-31T06:25:38;100636.44;;;17.51;100.00
54172;BME280;40076;52.354;4.970;2023-07-31T06:28:06;100632.53;;;17.52;100.00
54172;BME280;40076;52.354;4.970;2023-07-31T06:30:32;100642.31;;;17.53;100.00
54172;BME280;40076;52.354;4.970;2023-07-31T06:32:57;100634.50;;;17.52;100.00
54172;BME280;40076;52.354;4.970;2023-07-31T06:35:35;100629.38;;;17.50;100.00
54172;BME280;40076;52.354;4.970;2023-07-31T06:38:03;100616.94;;;17.53;100.00
54172;BME280;40076;52.354;4.970;2023-07-31T06:40:35;100623.97;;;17.54;100.00
54172;BME280;40076;52.354;4.970;2023-07-31T06:43:01;100615.00;;;17.53;100.00
54172;BME280;40076;52.354;4.970;2023-07-31T06:45:36;100629.06;;;17.55;100.00
54172;BME280;40076;52.354;4.970;2023-07-31T06:48:20;100611.13;;;17.54;100.00
54172;BME280;40076;52.354;4.970;2023-07-31T06:50:46;100616.56;;;17.54;100.00
54172;BME280;40076;52.354;4.970;2023-07-31T06:53:29;100609.94;;;17.55;100.00
54172;BME280;40076;52.354;4.970;2023-07-31T06:59:21;100623.59;;;17.55;100.00
54172;BME280;40076;52.354;4.970;2023-07-31T07:02:04;100606.41;;;17.55;100.00
54172;BME280;40076;52.354;4.970;2023-07-31T07:04:30;100614.66;;;17.58;100.00
54172;BME280;40076;52.354;4.970;2023-07-31T07:06:55;100607.69;;;17.61;100.00
54172;BME280;40076;52.354;4.970;2023-07-31T07:09:21;100609.28;;;17.62;100.00
54172;BME280;40076;52.354;4.970;2023-07-31T07:11:46;100618.25;;;17.62;100.00
54172;BME280;40076;52.354;4.970;2023-07-31T07:14:17;100608.91;;;17.63;100.00
54172;BME280;40076;52.354;4.970;2023-07-31T07:16:43;100605.44;;;17.66;100.00
54172;BME280;40076;52.354;4.970;2023-07-31T07:19:08;100610.53;;;17.68;100.00
54172;BME280;40076;52.354;4.970;2023-07-31T07:21:35;100603.91;;;17.69;100.00
54172;BME280;40076;52.354;4.970;2023-07-31T07:24:01;100610.56;;;17.71;100.00
54172;BME280;40076;52.354;4.970;2023-07-31T07:26:26;100608.25;;;17.73;100.00
54172;BME280;40076;52.354;4.970;2023-07-31T07:28:55;100612.19;;;17.76;100.00
54172;BME280;40076;52.354;4.970;2023-07-31T07:31:20;100607.50;;;17.77;100.00
54172;BME280;40076;52.354;4.970;2023-07-31T07:33:46;100609.06;;;17.78;100.00
54172;BME280;40076;52.354;4.970;2023-07-31T07:36:11;100604.81;;;17.80;100.00
54172;BME280;40076;52.354;4.970;2023-07-31T07:38:38;100615.75;;;17.80;100.00
54172;BME280;40076;52.354;4.970;2023-07-31T07:41:12;100616.16;;;17.82;100.00
54172;BME280;40076;52.354;4.970;2023-07-31T07:43:37;100610.72;;;17.86;100.00
54172;BME280;40076;52.354;4.970;2023-07-31T07:46:03;100611.16;;;17.88;100.00
54172;BME280;40076;52.354;4.970;2023-07-31T07:48:47;100606.88;;;17.90;100.00
54172;BME280;40076;52.354;4.970;2023-07-31T07:51:13;100605.72;;;17.91;100.00
54172;BME280;40076;52.354;4.970;2023-07-31T07:53:38;100609.25;;;17.92;100.00
54172;BME280;40076;52.354;4.970;2023-07-31T07:56:04;100613.22;;;17.98;100.00
54172;BME280;40076;52.354;4.970;2023-07-31T07:58:31;100609.72;;;18.01;100.00
54172;BME280;40076;52.354;4.970;2023-07-31T08:04:18;100609.44;;;18.09;100.00
54172;BME280;40076;52.354;4.970;2023-07-31T08:06:59;100604.75;;;18.10;100.00
54172;BME280;40076;52.354;4.970;2023-07-31T08:09:24;100604.00;;;18.13;100.00
54172;BME280;40076;52.354;4.970;2023-07-31T08:11:50;100600.50;;;18.16;100.00
54172;BME280;40076;52.354;4.970;2023-07-31T08:14:15;100593.50;;;18.19;100.00
54172;BME280;40076;52.354;4.970;2023-07-31T08:16:47;100596.66;;;18.21;100.00
54172;BME280;40076;52.354;4.970;2023-07-31T08:19:12;100593.16;;;18.24;100.00
54172;BME280;40076;52.354;4.970;2023-07-31T08:21:39;100599.84;;;18.26;100.00
54172;BME280;40076;52.354;4.970;2023-07-31T08:24:05;100596.72;;;18.28;100.00
54172;BME280;40076;52.354;4.970;2023-07-31T08:26:32;100595.19;;;18.30;100.00
54172;BME280;40076;52.354;4.970;2023-07-31T08:28:57;100590.13;;;18.32;100.00
54172;BME280;40076;52.354;4.970;2023-07-31T08:31:23;100589.75;;;18.34;100.00
54172;BME280;40076;52.354;4.970;2023-07-31T08:33:49;100593.31;;;18.38;100.00
54172;BME280;40076;52.354;4.970;2023-07-31T08:36:18;100589.81;;;18.41;100.00
54172;BME280;40076;52.354;4.970;2023-07-31T08:38:46;100585.53;;;18.43;100.00
54172;BME280;40076;52.354;4.970;2023-07-31T08:41:14;100598.44;;;18.46;100.00
54172;BME280;40076;52.354;4.970;2023-07-31T08:43:42;100584.03;;;18.49;100.00
54172;BME280;40076;52.354;4.970;2023-07-31T08:46:08;100601.66;;;18.52;100.00
54172;BME280;40076;52.354;4.970;2023-07-31T08:48:35;100600.88;;;18.55;100.00
54172;BME280;40076;52.354;4.970;2023-07-31T08:51:02;100597.81;;;18.57;100.00
54172;BME280;40076;52.354;4.970;2023-07-31T08:53:28;100607.22;;;18.59;100.00
54172;BME280;40076;52.354;4.970;2023-07-31T08:55:58;100592.75;;;18.62;100.00
54172;BME280;40076;52.354;4.970;2023-07-31T08:58:24;100595.13;;;18.64;100.00
54172;BME280;40076;52.354;4.970;2023-07-31T09:00:51;100593.16;;;18.64;100.00
54172;BME280;40076;52.354;4.970;2023-07-31T09:03:21;100595.16;;;18.67;100.00
54172;BME280;40076;52.354;4.970;2023-07-31T09:05:48;100577.19;;;18.70;100.00
54172;BME280;40076;52.354;4.970;2023-07-31T09:08:18;100593.22;;;18.71;100.00
54172;BME280;40076;52.354;4.970;2023-07-31T09:10:45;100597.53;;;18.72;100.00
54172;BME280;40076;52.354;4.970;2023-07-31T09:13:15;100595.22;;;18.74;100.00
54172;BME280;40076;52.354;4.970;2023-07-31T09:15:44;100598.38;;;18.76;100.00
54172;BME280;40076;52.354;4.970;2023-07-31T09:18:10;100598.38;;;18.76;100.00
54172;BME280;40076;52.354;4.970;2023-07-31T09:20:38;100591.34;;;18.79;100.00
54172;BME280;40076;52.354;4.970;2023-07-31T09:23:13;100592.13;;;18.79;100.00
54172;BME280;40076;52.354;4.970;2023-07-31T09:25:41;100587.44;;;18.80;100.00
54172;BME280;40076;52.354;4.970;2023-07-31T09:28:09;100586.25;;;18.81;100.00
54172;BME280;40076;52.354;4.970;2023-07-31T09:30:48;100576.09;;;18.81;100.00
54172;BME280;40076;52.354;4.970;2023-07-31T09:33:13;100590.59;;;18.82;100.00
54172;BME280;40076;52.354;4.970;2023-07-31T09:35:39;100588.25;;;18.84;100.00
54172;BME280;40076;52.354;4.970;2023-07-31T09:38:13;100581.22;;;18.86;100.00
54172;BME280;40076;52.354;4.970;2023-07-31T09:40:48;100587.47;;;18.87;100.00
54172;BME280;40076;52.354;4.970;2023-07-31T09:43:18;100585.53;;;18.87;100.00
54172;BME280;40076;52.354;4.970;2023-07-31T09:45:44;100591.41;;;18.89;100.00
54172;BME280;40076;52.354;4.970;2023-07-31T09:48:17;100587.91;;;18.93;100.00
54172;BME280;40076;52.354;4.970;2023-07-31T09:50:45;100589.09;;;18.95;100.00
54172;BME280;40076;52.354;4.970;2023-07-31T09:53:13;100593.41;;;18.96;100.00
54172;BME280;40076;52.354;4.970;2023-07-31T09:55:43;100577.00;;;19.00;100.00
54172;BME280;40076;52.354;4.970;2023-07-31T09:58:10;100582.09;;;19.01;100.00
54172;BME280;40076;52.354;4.970;2023-07-31T10:00:37;100586.03;;;19.04;100.00
54172;BME280;40076;52.354;4.970;2023-07-31T10:03:09;100578.59;;;19.04;100.00
54172;BME280;40076;52.354;4.970;2023-07-31T10:05:37;100580.19;;;19.09;100.00
54172;BME280;40076;52.354;4.970;2023-07-31T10:08:04;100577.47;;;19.12;100.00
54172;BME280;40076;52.354;4.970;2023-07-31T10:10:31;100572.00;;;19.12;100.00
54172;BME280;40076;52.354;4.970;2023-07-31T10:12:57;100579.06;;;19.17;100.00
54172;BME280;40076;52.354;4.970;2023-07-31T10:18:42;100576.78;;;19.26;100.00
54172;BME280;40076;52.354;4.970;2023-07-31T10:21:11;100576.00;;;19.29;100.00
54172;BME280;40076;52.354;4.970;2023-07-31T10:23:36;100585.44;;;19.35;100.00
54172;BME280;40076;52.354;4.970;2023-07-31T10:26:05;100584.25;;;19.40;100.00
54172;BME280;40076;52.354;4.970;2023-07-31T10:28:32;100577.25;;;19.46;100.00
54172;BME280;40076;52.354;4.970;2023-07-31T10:31:01;100573.78;;;19.49;100.00
54172;BME280;40076;52.354;4.970;2023-07-31T10:33:32;100579.28;;;19.52;100.00
54172;BME280;40076;52.354;4.970;2023-07-31T10:36:19;100565.97;;;19.54;100.00
54172;BME280;40076;52.354;4.970;2023-07-31T10:38:54;100574.59;;;19.56;100.00
54172;BME280;40076;52.354;4.970;2023-07-31T10:41:28;100571.47;;;19.58;100.00
54172;BME280;40076;52.354;4.970;2023-07-31T10:43:57;100580.47;;;19.58;100.00
54172;BME280;40076;52.354;4.970;2023-07-31T10:46:23;100574.22;;;19.61;100.00
54172;BME280;40076;52.354;4.970;2023-07-31T10:48:57;100577.34;;;19.63;100.00
54172;BME280;40076;52.354;4.970;2023-07-31T10:51:23;100573.47;;;19.68;100.00
54172;BME280;40076;52.354;4.970;2023-07-31T10:53:48;100566.00;;;19.69;100.00
54172;BME280;40076;52.354;4.970;2023-07-31T10:56:16;100564.88;;;19.73;100.00
54172;BME280;40076;52.354;4.970;2023-07-31T10:59:03;100563.69;;;19.74;100.00
54172;BME280;40076;52.354;4.970;2023-07-31T11:01:55;100563.69;;;19.78;100.00
54172;BME280;40076;52.354;4.970;2023-07-31T11:04:25;100554.69;;;19.77;100.00
54172;BME280;40076;52.354;4.970;2023-07-31T11:07:01;100562.91;;;19.77;100.00
54172;BME280;40076;52.354;4.970;2023-07-31T11:09:34;100566.84;;;19.80;100.00
54172;BME280;40076;52.354;4.970;2023-07-31T11:12:00;100557.06;;;19.82;100.00
54172;BME280;40076;52.354;4.970;2023-07-31T11:14:25;100562.94;;;19.84;100.00
54172;BME280;40076;52.354;4.970;2023-07-31T11:16:52;100556.69;;;19.87;100.00
54172;BME280;40076;52.354;4.970;2023-07-31T11:19:24;100556.28;;;19.89;100.00
54172;BME280;40076;52.354;4.970;2023-07-31T11:21:53;100555.13;;;19.90;100.00
54172;BME280;40076;52.354;4.970;2023-07-31T11:24:24;100553.53;;;19.92;100.00
54172;BME280;40076;52.354;4.970;2023-07-31T11:26:51;100553.53;;;19.92;100.00
54172;BME280;40076;52.354;4.970;2023-07-31T11:29:18;100542.97;;;19.94;100.00
54172;BME280;40076;52.354;4.970;2023-07-31T11:31:44;100531.25;;;19.97;100.00
54172;BME280;40076;52.354;4.970;2023-07-31T11:34:12;100530.84;;;19.99;100.00
54172;BME280;40076;52.354;4.970;2023-07-31T11:36:38;100528.09;;;19.99;100.00
54172;BME280;40076;52.354;4.970;2023-07-31T11:42:28;100527.72;;;20.00;100.00
54172;BME280;40076;52.354;4.970;2023-07-31T11:44:54;100520.66;;;20.03;100.00
54172;BME280;40076;52.354;4.970;2023-07-31T11:47:41;100520.28;;;20.04;100.00
54172;BME280;40076;52.354;4.970;2023-07-31T11:50:11;100528.50;;;20.04;100.00
54172;BME280;40076;52.354;4.970;2023-07-31T11:52:40;100524.19;;;20.07;100.00
54172;BME280;40076;52.354;4.970;2023-07-31T11:55:08;100523.00;;;20.08;100.00
54172;BME280;40076;52.354;4.970;2023-07-31T11:57:56;100534.00;;;20.12;100.00
54172;BME280;40076;52.354;4.970;2023-07-31T12:00:23;100530.88;;;20.13;100.00
54172;BME280;40076;52.354;4.970;2023-07-31T12:02:50;100534.00;;;20.12;100.00
54172;BME280;40076;52.354;4.970;2023-07-31T12:05:16;100539.88;;;20.14;100.00
54172;BME280;40076;52.354;4.970;2023-07-31T12:07:50;100552.41;;;20.11;100.00
54172;BME280;40076;52.354;4.970;2023-07-31T12:10:30;100543.00;;;20.09;100.00
54172;BME280;40076;52.354;4.970;2023-07-31T12:13:01;100536.34;;;20.10;100.00
54172;BME280;40076;52.354;4.970;2023-07-31T12:15:37;100541.44;;;20.11;100.00
54172;BME280;40076;52.354;4.970;2023-07-31T12:18:05;100531.66;;;20.14;100.00
54172;BME280;40076;52.354;4.970;2023-07-31T12:20:30;100531.25;;;20.15;100.00
54172;BME280;40076;52.354;4.970;2023-07-31T12:22:57;100525.75;;;20.15;100.00
54172;BME280;40076;52.354;4.970;2023-07-31T12:25:23;100511.69;;;20.13;100.00
54172;BME280;40076;52.354;4.970;2023-07-31T12:27:53;100496.00;;;20.17;100.00
54172;BME280;40076;52.354;4.970;2023-07-31T12:30:34;100499.53;;;20.21;100.00
54172;BME280;40076;52.354;4.970;2023-07-31T12:33:06;100504.22;;;20.24;100.00
54172;BME280;40076;52.354;4.970;2023-07-31T12:35:37;100504.63;;;20.26;100.00
54172;BME280;40076;52.354;4.970;2023-07-31T12:38:02;100501.84;;;20.30;100.00
54172;BME280;40076;52.354;4.970;2023-07-31T12:40:28;100503.81;;;20.33;100.00
54172;BME280;40076;52.354;4.970;2023-07-31T12:42:53;100507.38;;;20.33;100.00
54172;BME280;40076;52.354;4.970;2023-07-31T12:45:19;100490.94;;;20.33;100.00
54172;BME280;40076;52.354;4.970;2023-07-31T12:47:58;100491.31;;;20.35;100.00
54172;BME280;40076;52.354;4.970;2023-07-31T12:50:24;100483.47;;;20.34;100.00
54172;BME280;40076;52.354;4.970;2023-07-31T12:52:50;100488.16;;;20.37;100.00
54172;BME280;40076;52.354;4.970;2023-07-31T12:55:16;100483.06;;;20.39;100.00
54172;BME280;40076;52.354;4.970;2023-07-31T12:57:43;100494.06;;;20.42;100.00
54172;BME280;40076;52.354;4.970;2023-07-31T13:00:09;100492.88;;;20.47;100.00
54172;BME280;40076;52.354;4.970;2023-07-31T13:02:34;100490.91;;;20.51;100.00
54172;BME280;40076;52.354;4.970;2023-07-31T13:08:22;100494.44;;;20.59;100.00
54172;BME280;40076;52.354;4.970;2023-07-31T13:10:47;100488.53;;;20.60;100.00
54172;BME280;40076;52.354;4.970;2023-07-31T13:13:20;100488.53;;;20.64;100.00